Time;durP1;ratioP1;P1;durP2;ratioP2;P2;SDS_P1;SDS_P2;PMS_P1;PMS_P2;Temp;Humidity;BMP_temperature;BMP_pressure;BME280_temperature;BME280_humidity;BME280_pressure;Samples;Min_cycle;Max_cycle;Signal;HPM_P1;HPM_P2
2021/04/25 00:00:45;;;;;;;19.27;14.27;;;6.00;63.70;;;;;;5042476;28;20455;-83
2021/04/25 00:03:28;;;;;;;18.30;14.10;;;6.00;64.10;;;;;;5044375;28;20453;-83
2021/04/25 00:06:03;;;;;;;19.83;13.80;;;6.00;64.20;;;;;;5041793;28;20517;-82
2021/04/25 00:08:37;;;;;;;15.50;12.87;;;5.90;64.30;;;;;;5037547;28;20450;-82
2021/04/25 00:11:13;;;;;;;17.27;14.23;;;5.90;64.30;;;;;;5038166;28;20453;-83
2021/04/25 00:13:48;;;;;;;20.63;15.03;;;5.90;64.10;;;;;;5036823;28;20985;-83
2021/04/25 00:16:23;;;;;;;17.43;14.83;;;5.90;64.30;;;;;;5038592;28;20446;-85
2021/04/25 00:18:58;;;;;;;18.73;13.57;;;5.90;64.20;;;;;;5044341;28;20457;-83
2021/04/25 00:21:34;;;;;;;21.53;14.20;;;5.70;64.30;;;;;;5041124;28;20468;-82
2021/04/25 00:24:09;;;;;;;24.67;14.37;;;5.60;65.10;;;;;;5031893;28;20492;-82
2021/04/25 00:26:45;;;;;;;16.57;13.30;;;5.60;65.00;;;;;;5038410;28;20505;-82
2021/04/25 00:29:20;;;;;;;13.93;12.33;;;5.60;64.80;;;;;;5037745;28;20470;-82
2021/04/25 00:31:54;;;;;;;19.47;13.60;;;5.60;65.00;;;;;;5041117;28;20475;-84
2021/04/25 00:34:29;;;;;;;16.87;12.83;;;5.60;64.90;;;;;;5043532;28;20445;-84
2021/04/25 00:37:04;;;;;;;18.10;13.73;;;5.50;65.00;;;;;;5038545;28;20462;-82
2021/04/25 00:39:38;;;;;;;19.33;14.43;;;5.50;65.10;;;;;;5038040;28;20524;-83
2021/04/25 00:42:16;;;;;;;17.30;13.67;;;5.50;65.10;;;;;;5034084;28;20480;-84
2021/04/25 00:44:49;;;;;;;18.27;13.93;;;5.40;65.50;;;;;;5034057;28;20447;-82
2021/04/25 00:47:23;;;;;;;16.33;13.67;;;5.30;65.90;;;;;;5033163;28;20518;-82
2021/04/25 00:49:58;;;;;;;17.80;14.37;;;5.30;65.90;;;;;;5038866;28;20461;-82
2021/04/25 00:52:33;;;;;;;18.13;13.27;;;5.20;66.50;;;;;;5024758;28;20472;-83
2021/04/25 00:55:09;;;;;;;17.47;13.97;;;5.20;66.60;;;;;;5031546;28;20454;-85
2021/04/25 00:57:45;;;;;;;16.50;13.73;;;5.20;66.40;;;;;;5044552;28;20446;-85
2021/04/25 01:00:20;;;;;;;19.57;14.80;;;5.20;66.40;;;;;;5031919;28;20454;-82
2021/04/25 01:02:55;;;;;;;18.50;14.07;;;5.10;67.00;;;;;;5032707;28;20449;-82
2021/04/25 01:05:31;;;;;;;18.63;14.10;;;5.10;67.10;;;;;;5028555;28;20533;-82
2021/04/25 01:08:06;;;;;;;25.63;15.70;;;5.00;68.20;;;;;;5026452;28;20482;-83
2021/04/25 01:10:41;;;;;;;17.97;13.60;;;4.90;68.80;;;;;;5032099;28;20461;-83
2021/04/25 01:13:17;;;;;;;19.30;14.10;;;4.80;69.20;;;;;;5033481;28;20452;-82
2021/04/25 01:15:49;;;;;;;20.10;14.53;;;4.70;69.60;;;;;;5036837;28;21105;-82
2021/04/25 01:18:24;;;;;;;15.17;13.07;;;4.80;70.30;;;;;;5035885;28;20941;-82
2021/04/25 01:21:03;;;;;;;17.17;14.80;;;4.70;70.10;;;;;;5036240;28;20465;-83
2021/04/25 01:23:38;;;;;;;16.20;14.50;;;4.60;71.00;;;;;;5035376;28;20462;-82
2021/04/25 01:26:13;;;;;;;15.07;13.57;;;4.70;71.20;;;;;;5029435;28;20449;-82
2021/04/25 01:28:48;;;;;;;19.13;14.47;;;4.70;71.30;;;;;;5032842;28;20535;-82
2021/04/25 01:31:23;;;;;;;18.00;13.73;;;4.70;71.00;;;;;;5030838;28;20464;-83
2021/04/25 01:33:59;;;;;;;16.50;13.97;;;4.60;70.90;;;;;;5038711;28;20454;-82
2021/04/25 01:36:35;;;;;;;20.77;15.63;;;4.60;71.00;;;;;;5030995;28;20460;-81
2021/04/25 01:39:10;;;;;;;19.97;14.57;;;4.50;71.80;;;;;;5032280;28;20597;-82
2021/04/25 01:41:45;;;;;;;16.67;14.40;;;4.30;72.10;;;;;;5032268;28;20571;-82
2021/04/25 01:44:20;;;;;;;16.33;14.63;;;4.30;72.30;;;;;;5033864;28;20505;-82
2021/04/25 01:46:54;;;;;;;19.97;15.07;;;4.30;73.00;;;;;;5031157;28;20453;-81
2021/04/25 01:49:29;;;;;;;17.80;14.90;;;4.50;72.30;;;;;;5033515;28;20457;-82
2021/04/25 01:52:05;;;;;;;20.17;14.87;;;4.60;71.40;;;;;;5040040;28;20458;-82
2021/04/25 01:54:39;;;;;;;16.90;14.23;;;4.60;71.20;;;;;;5033852;28;20462;-83
2021/04/25 01:57:14;;;;;;;22.27;16.20;;;4.60;71.20;;;;;;5034839;28;20462;-83
2021/04/25 01:59:49;;;;;;;18.00;14.50;;;4.50;71.60;;;;;;5032836;28;20538;-83
2021/04/25 02:02:24;;;;;;;22.73;14.70;;;4.40;71.80;;;;;;5030826;28;20444;-83
2021/04/25 02:05:00;;;;;;;18.17;14.10;;;4.50;72.10;;;;;;5034614;28;20456;-83
2021/04/25 02:07:36;;;;;;;20.37;14.60;;;4.40;71.90;;;;;;5037015;28;20484;-83
2021/04/25 02:10:11;;;;;;;16.00;14.30;;;4.40;72.50;;;;;;5038083;28;20462;-83
2021/04/25 02:12:46;;;;;;;17.67;14.90;;;4.30;72.30;;;;;;5038651;28;20460;-83
2021/04/25 02:15:21;;;;;;;15.77;14.17;;;4.20;72.90;;;;;;5040479;28;20497;-82
2021/04/25 02:18:00;;;;;;;18.03;15.37;;;4.20;72.80;;;;;;5038598;28;20860;-83
2021/04/25 02:20:34;;;;;;;22.07;14.97;;;4.20;73.70;;;;;;5030529;28;20485;-84
2021/04/25 02:23:07;;;;;;;19.70;15.50;;;4.10;73.70;;;;;;5045578;28;20473;-84
2021/04/25 02:25:42;;;;;;;18.40;14.90;;;4.10;74.00;;;;;;5032631;28;20446;-83
2021/04/25 02:28:16;;;;;;;21.60;14.93;;;4.10;73.70;;;;;;5039828;28;20485;-83
2021/04/25 02:30:49;;;;;;;20.27;14.80;;;4.00;73.60;;;;;;5041723;28;20562;-82
2021/04/25 02:33:49;;;;;;;20.63;14.70;;;4.00;73.20;;;;;;5034033;28;20469;-83
2021/04/25 02:36:29;;;;;;;17.30;15.13;;;4.00;73.60;;;;;;5033715;28;20920;-84
2021/04/25 02:39:05;;;;;;;16.67;12.90;;;3.90;74.00;;;;;;5043195;28;20444;-84
2021/04/25 02:41:40;;;;;;;16.97;14.13;;;3.80;74.30;;;;;;5026609;28;20569;-84
2021/04/25 02:44:15;;;;;;;17.67;13.50;;;3.80;74.40;;;;;;5027116;28;20479;-84
2021/04/25 02:46:51;;;;;;;19.70;16.10;;;3.60;74.70;;;;;;5025602;28;20563;-83
2021/04/25 02:49:25;;;;;;;16.97;14.07;;;3.70;75.40;;;;;;5030357;28;20440;-83
2021/04/25 02:52:00;;;;;;;17.20;14.07;;;3.70;75.00;;;;;;5033388;28;20448;-84
2021/04/25 02:54:37;;;;;;;19.07;15.10;;;3.70;74.70;;;;;;5042227;28;20476;-84
2021/04/25 02:57:12;;;;;;;21.90;15.00;;;3.50;75.30;;;;;;5035737;28;20452;-84
2021/04/25 02:59:47;;;;;;;19.47;13.50;;;3.50;76.10;;;;;;5032768;28;20464;-84
2021/04/25 03:02:21;;;;;;;17.03;13.63;;;3.50;76.50;;;;;;5027821;28;20978;-84
2021/04/25 03:04:56;;;;;;;17.77;14.10;;;3.40;77.00;;;;;;5028346;28;20949;-84
2021/04/25 03:07:39;;;;;;;18.93;14.67;;;3.40;76.90;;;;;;5033616;28;20583;-84
2021/04/25 03:10:16;;;;;;;19.37;13.60;;;3.40;76.50;;;;;;5038235;28;20438;-85
2021/04/25 03:12:52;;;;;;;17.87;13.93;;;3.40;76.80;;;;;;5040472;28;20447;-84
2021/04/25 03:15:27;;;;;;;17.10;14.87;;;3.30;76.40;;;;;;5029160;28;20491;-84
2021/04/25 03:18:02;;;;;;;17.10;13.70;;;3.10;77.30;;;;;;5036285;28;20472;-83
2021/04/25 03:20:37;;;;;;;23.27;15.90;;;3.00;78.30;;;;;;5029920;28;20510;-83
2021/04/25 03:23:12;;;;;;;18.20;15.30;;;2.90;79.70;;;;;;5037824;28;20989;-85
2021/04/25 03:25:48;;;;;;;18.27;15.87;;;3.00;80.00;;;;;;5047771;28;21021;-83
2021/04/25 03:28:22;;;;;;;17.77;14.63;;;2.90;80.80;;;;;;5038973;28;20483;-82
2021/04/25 03:30:57;;;;;;;20.37;16.00;;;3.00;80.00;;;;;;5032101;28;20456;-84
2021/04/25 03:33:32;;;;;;;20.17;14.23;;;3.20;78.20;;;;;;5030821;28;20480;-83
2021/04/25 03:36:07;;;;;;;18.47;15.50;;;3.40;77.90;;;;;;5033813;28;20470;-83
2021/04/25 03:38:42;;;;;;;19.87;14.67;;;3.00;78.30;;;;;;5025690;28;20483;-83
2021/04/25 03:41:17;;;;;;;16.17;14.47;;;3.00;79.50;;;;;;5037813;28;20459;-83
2021/04/25 03:43:52;;;;;;;17.57;14.00;;;2.80;81.00;;;;;;5033560;28;20459;-83
2021/04/25 03:46:27;;;;;;;18.67;15.07;;;2.90;81.20;;;;;;5032809;28;20484;-83
2021/04/25 03:49:04;;;;;;;16.33;14.40;;;2.90;80.20;;;;;;5032412;28;20510;-84
2021/04/25 03:51:39;;;;;;;16.83;13.77;;;2.80;80.50;;;;;;5029745;28;20444;-84
2021/04/25 03:54:10;;;;;;;21.93;15.40;;;2.90;80.80;;;;;;5044804;28;20457;-85
2021/04/25 03:56:47;;;;;;;28.43;15.97;;;2.80;81.20;;;;;;5051968;28;20460;-84
2021/04/25 03:59:22;;;;;;;24.00;14.30;;;2.70;81.10;;;;;;5040211;28;20879;-83
2021/04/25 04:01:56;;;;;;;19.63;15.70;;;2.60;81.60;;;;;;5038874;28;20444;-84
2021/04/25 04:04:31;;;;;;;18.30;14.80;;;2.80;80.80;;;;;;5033171;28;20458;-83
2021/04/25 04:07:06;;;;;;;23.00;16.13;;;2.60;81.60;;;;;;5029062;28;20467;-83
2021/04/25 04:09:40;;;;;;;24.17;15.43;;;2.50;82.50;;;;;;5028401;28;20531;-84
2021/04/25 04:12:14;;;;;;;18.10;14.23;;;2.50;82.80;;;;;;5037293;28;20451;-83
2021/04/25 04:14:54;;;;;;;19.00;14.47;;;2.60;81.60;;;;;;5027771;28;20463;-83
2021/04/25 04:17:34;;;;;;;16.80;13.97;;;2.60;81.50;;;;;;5035665;28;20444;-83
2021/04/25 04:20:08;;;;;;;19.93;14.37;;;2.60;81.30;;;;;;5034302;28;20451;-83
2021/04/25 04:22:43;;;;;;;17.60;14.70;;;2.60;81.60;;;;;;5036257;28;20503;-84
2021/04/25 04:25:20;;;;;;;16.67;14.07;;;2.60;81.50;;;;;;5038571;28;20460;-83
2021/04/25 04:27:56;;;;;;;18.20;13.83;;;2.90;82.30;;;;;;5046919;28;20586;-83
2021/04/25 04:30:31;;;;;;;20.30;14.00;;;4.20;77.40;;;;;;5033503;28;20455;-82
2021/04/25 04:33:06;;;;;;;16.87;13.10;;;5.00;72.40;;;;;;5035481;28;20464;-82
2021/04/25 04:35:41;;;;;;;18.23;12.80;;;5.70;70.20;;;;;;5035779;28;20819;-83
2021/04/25 04:38:13;;;;;;;17.60;12.07;;;6.10;67.70;;;;;;5032078;28;20455;-83
2021/04/25 04:40:48;;;;;;;14.30;12.30;;;6.40;66.60;;;;;;5026089;28;20446;-83
2021/04/25 04:43:23;;;;;;;15.43;11.17;;;7.00;65.80;;;;;;5034952;28;20479;-83
2021/04/25 04:45:58;;;;;;;15.97;11.60;;;7.50;63.70;;;;;;5040970;28;20448;-82
2021/04/25 04:48:33;;;;;;;13.87;10.83;;;7.20;62.40;;;;;;5035613;28;20529;-84
2021/04/25 04:51:08;;;;;;;13.77;11.60;;;7.70;61.80;;;;;;5037659;28;20464;-82
2021/04/25 04:53:43;;;;;;;14.93;11.40;;;8.10;61.00;;;;;;5033806;28;20516;-82
2021/04/25 04:56:18;;;;;;;14.63;10.70;;;8.20;59.50;;;;;;5028499;28;20918;-83
2021/04/25 04:58:53;;;;;;;11.82;10.57;;;8.70;58.30;;;;;;5033702;28;20454;-82
2021/04/25 05:01:28;;;;;;;11.57;10.23;;;8.60;58.00;;;;;;5031727;28;20303;-82
2021/04/25 05:04:03;;;;;;;15.17;11.30;;;9.20;57.70;;;;;;5030746;28;20438;-82
2021/04/25 05:06:38;;;;;;;11.00;10.00;;;9.90;56.30;;;;;;5033236;28;20573;-81
2021/04/25 05:09:12;;;;;;;12.77;10.90;;;9.70;55.70;;;;;;5039421;28;20476;-82
2021/04/25 05:11:47;;;;;;;15.70;11.17;;;9.10;55.50;;;;;;5038069;28;20468;-81
2021/04/25 05:14:20;;;;;;;11.50;10.37;;;10.50;54.20;;;;;;5036183;28;20465;-81
2021/04/25 05:16:55;;;;;;;11.63;10.43;;;11.00;51.80;;;;;;5032306;28;21004;-82
2021/04/25 05:19:30;;;;;;;12.37;11.07;;;10.80;52.50;;;;;;5030580;28;20464;-82
2021/04/25 05:22:05;;;;;;;11.10;10.00;;;11.00;51.50;;;;;;5030572;28;20553;-82
2021/04/25 05:24:41;;;;;;;13.03;9.93;;;11.20;51.40;;;;;;5032614;28;20512;-82
2021/04/25 05:27:15;;;;;;;12.23;10.10;;;11.10;51.30;;;;;;5031325;28;20509;-82
2021/04/25 05:29:51;;;;;;;15.00;11.60;;;10.60;49.60;;;;;;5034067;28;20481;-81
2021/04/25 05:32:26;;;;;;;12.73;10.40;;;11.50;50.40;;;;;;5034000;28;20458;-83
2021/04/25 05:35:01;;;;;;;13.10;11.33;;;10.70;50.00;;;;;;5030835;28;20442;-82
2021/04/25 05:37:36;;;;;;;12.70;11.20;;;9.50;51.90;;;;;;5034359;28;20538;-82
2021/04/25 05:40:12;;;;;;;12.37;10.97;;;8.40;53.50;;;;;;5037383;28;20559;-82
2021/04/25 05:42:53;;;;;;;13.73;11.30;;;8.40;54.40;;;;;;5031928;28;20470;-82
2021/04/25 05:45:28;;;;;;;16.13;12.10;;;8.30;55.00;;;;;;5041552;28;20458;-82
2021/04/25 05:48:04;;;;;;;12.70;11.37;;;8.40;55.30;;;;;;5037477;28;20492;-83
2021/04/25 05:50:37;;;;;;;12.63;11.40;;;8.60;54.30;;;;;;5038564;28;20446;-82
2021/04/25 05:53:12;;;;;;;13.97;10.93;;;6.80;54.60;;;;;;5035955;28;20451;-82
2021/04/25 05:55:47;;;;;;;12.03;10.43;;;5.80;56.50;;;;;;5037963;28;20454;-82
2021/04/25 05:58:22;;;;;;;13.53;11.10;;;5.80;57.10;;;;;;5044278;28;20464;-82
2021/04/25 06:00:55;;;;;;;11.43;10.30;;;5.70;57.90;;;;;;5040250;28;20445;-83
2021/04/25 06:03:31;;;;;;;16.47;11.10;;;5.70;58.10;;;;;;5038641;28;21079;-82
2021/04/25 06:06:06;;;;;;;11.77;10.57;;;5.80;58.40;;;;;;5034896;28;20455;-82
2021/04/25 06:08:46;;;;;;;13.93;10.20;;;6.00;58.50;;;;;;5037444;28;20477;-81
2021/04/25 06:11:22;;;;;;;12.90;10.60;;;5.90;58.40;;;;;;5040872;28;20449;-82
2021/04/25 06:13:57;;;;;;;11.97;10.80;;;6.10;58.40;;;;;;5035872;28;20462;-82
2021/04/25 06:16:33;;;;;;;12.00;10.70;;;6.10;58.60;;;;;;5027745;28;20473;-82
2021/04/25 06:19:10;;;;;;;14.50;11.93;;;6.10;58.80;;;;;;5029890;28;20481;-82
2021/04/25 06:21:46;;;;;;;13.40;10.80;;;6.00;58.90;;;;;;5038076;28;20526;-82
2021/04/25 06:24:29;;;;;;;13.13;11.70;;;6.10;59.20;;;;;;5039839;28;20492;-81
2021/04/25 06:27:12;;;;;;;12.63;11.27;;;6.20;59.30;;;;;;5033865;28;20489;-82
2021/04/25 06:29:49;;;;;;;12.17;10.87;;;6.40;59.20;;;;;;5039474;28;20462;-82
2021/04/25 06:32:26;;;;;;;14.50;11.50;;;6.30;58.80;;;;;;5042128;28;20492;-82
2021/04/25 06:35:11;;;;;;;16.00;11.20;;;6.50;58.50;;;;;;5045057;28;20516;-81
2021/04/25 06:37:55;;;;;;;10.87;9.67;;;6.80;58.40;;;;;;5050258;28;20457;-83
2021/04/25 06:40:36;;;;;;;12.10;9.87;;;6.90;58.40;;;;;;5041878;28;20458;-82
2021/04/25 06:43:11;;;;;;;11.47;10.00;;;7.00;57.60;;;;;;5035178;28;20458;-82
2021/04/25 06:45:47;;;;;;;11.90;9.70;;;7.10;57.20;;;;;;5035812;28;20453;-81
2021/04/25 06:48:23;;;;;;;9.73;8.70;;;7.20;57.00;;;;;;5041910;28;20487;-82
2021/04/25 06:50:57;;;;;;;13.63;10.33;;;7.30;55.40;;;;;;5042167;28;20462;-82
2021/04/25 06:53:34;;;;;;;10.03;9.03;;;7.40;55.50;;;;;;5040764;28;20461;-82
2021/04/25 06:56:30;;;;;;;11.50;8.70;;;7.40;54.90;;;;;;5037500;28;20551;-82
2021/04/25 06:59:05;;;;;;;8.97;8.00;;;7.50;54.80;;;;;;5044729;28;20458;-82
2021/04/25 07:01:42;;;;;;;8.50;7.60;;;7.70;53.90;;;;;;5047029;28;20457;-83
2021/04/25 07:04:19;;;;;;;8.80;7.90;;;7.80;53.40;;;;;;5050100;28;20445;-82
2021/04/25 07:06:52;;;;;;;8.50;6.70;;;7.90;52.60;;;;;;5042989;28;20512;-82
2021/04/25 07:09:34;;;;;;;7.10;5.57;;;8.00;50.40;;;;;;5049256;28;20538;-82
2021/04/25 07:12:07;;;;;;;7.17;5.80;;;8.10;50.10;;;;;;5048723;28;20478;-82
2021/04/25 07:14:48;;;;;;;6.70;5.10;;;8.40;49.70;;;;;;5042449;28;20462;-82
2021/04/25 07:17:37;;;;;;;10.43;4.73;;;8.30;48.80;;;;;;5038298;28;21131;-81
2021/04/25 07:20:16;;;;;;;8.27;5.07;;;8.50;48.10;;;;;;5045296;28;20520;-82
2021/04/25 07:22:51;;;;;;;6.40;4.03;;;8.80;47.30;;;;;;5035797;28;20490;-82
2021/04/25 07:25:34;;;;;;;4.60;3.30;;;8.90;45.60;;;;;;5038740;28;20446;-82
2021/04/25 07:28:20;;;;;;;5.40;3.83;;;8.80;44.70;;;;;;5035528;28;20510;-83
2021/04/25 07:31:05;;;;;;;4.70;2.93;;;8.90;44.00;;;;;;5040736;28;20924;-82
2021/04/25 07:33:49;;;;;;;5.03;2.90;;;8.70;43.30;;;;;;5038242;28;20530;-84
2021/04/25 07:36:41;;;;;;;5.27;3.17;;;8.90;43.30;;;;;;5035674;28;20457;-83
2021/04/25 07:39:20;;;;;;;4.83;3.80;;;9.10;43.10;;;;;;5040560;28;20492;-83
2021/04/25 07:41:58;;;;;;;4.17;2.93;;;9.30;43.00;;;;;;5044623;28;20484;-83
2021/04/25 07:44:45;;;;;;;7.43;4.37;;;9.40;43.10;;;;;;5018047;28;20525;-82
2021/04/25 07:47:21;;;;;;;5.10;3.30;;;9.50;42.40;;;;;;5044380;28;20471;-83
2021/04/25 07:49:58;;;;;;;4.17;3.50;;;9.70;42.70;;;;;;5042118;28;20470;-82
2021/04/25 07:52:35;;;;;;;5.67;3.70;;;9.40;41.90;;;;;;5043945;28;20449;-84
2021/04/25 07:55:12;;;;;;;7.03;3.40;;;9.50;42.00;;;;;;5037895;28;20525;-83
2021/04/25 08:00:46;;;;;;;7.37;3.27;;;9.50;41.30;;;;;;5039039;28;20458;-82
2021/04/25 08:03:35;;;;;;;5.30;3.07;;;9.60;41.20;;;;;;5035387;28;20490;-83
2021/04/25 08:06:19;;;;;;;4.57;3.60;;;9.60;41.10;;;;;;5043579;28;20455;-83
2021/04/25 08:08:55;;;;;;;3.57;3.23;;;9.70;40.90;;;;;;5038016;28;20548;-82
2021/04/25 08:11:44;;;;;;;6.93;3.10;;;10.10;40.10;;;;;;5040761;28;20526;-82
2021/04/25 08:14:28;;;;;;;8.00;3.23;;;9.90;40.90;;;;;;5036777;28;20467;-83
2021/04/25 08:20:17;;;;;;;3.23;2.90;;;9.90;40.40;;;;;;5043267;28;20450;-82
2021/04/25 08:22:50;;;;;;;11.30;3.73;;;10.00;40.00;;;;;;5036055;28;20469;-81
2021/04/25 08:25:29;;;;;;;6.67;3.47;;;10.00;38.80;;;;;;5033237;28;20486;-80
2021/04/25 08:28:14;;;;;;;5.17;3.93;;;10.00;38.60;;;;;;5037440;28;20482;-82
2021/04/25 08:30:49;;;;;;;6.53;3.77;;;10.10;38.40;;;;;;5040511;28;20463;-83
2021/04/25 08:33:42;;;;;;;8.37;4.10;;;10.30;38.60;;;;;;5036791;28;20454;-82
2021/04/25 08:36:17;;;;;;;7.23;3.40;;;10.30;38.40;;;;;;5033508;28;20482;-83
2021/04/25 08:38:52;;;;;;;3.70;3.10;;;10.10;37.40;;;;;;5035473;28;20451;-83
2021/04/25 08:41:34;;;;;;;4.40;2.83;;;9.80;38.50;;;;;;5041206;28;20470;-84
2021/04/25 08:44:15;;;;;;;5.40;3.80;;;10.30;38.10;;;;;;5041701;28;20446;-81
2021/04/25 08:46:52;;;;;;;5.00;3.23;;;10.20;38.40;;;;;;5031545;28;20470;-81
2021/04/25 08:49:46;;;;;;;4.63;3.57;;;10.10;37.60;;;;;;5045570;28;20458;-81
2021/04/25 08:52:26;;;;;;;4.93;3.77;;;10.30;37.90;;;;;;5037240;28;20443;-82
2021/04/25 08:55:04;;;;;;;5.47;3.20;;;10.20;38.00;;;;;;5037944;28;20462;-82
2021/04/25 08:57:43;;;;;;;6.53;3.37;;;10.50;37.80;;;;;;5042851;28;20475;-88
2021/04/25 09:00:26;;;;;;;5.10;4.00;;;10.40;38.00;;;;;;5034975;28;20450;-85
2021/04/25 09:03:06;;;;;;;5.20;3.40;;;10.10;37.50;;;;;;5043005;28;20443;-81
2021/04/25 09:08:51;;;;;;;5.83;3.80;;;10.50;37.70;;;;;;5035298;28;20482;-82
2021/04/25 09:11:35;;;;;;;5.43;3.10;;;10.70;38.00;;;;;;5033859;28;20455;-84
2021/04/25 09:14:32;;;;;;;4.80;3.60;;;10.60;37.50;;;;;;5042201;28;20447;-82
2021/04/25 09:17:07;;;;;;;4.67;3.40;;;11.00;37.90;;;;;;5038115;28;20483;-84
2021/04/25 09:19:55;;;;;;;4.83;3.27;;;10.60;37.50;;;;;;5044614;28;20463;-82
2021/04/25 09:22:53;;;;;;;4.10;2.90;;;10.80;37.40;;;;;;5042542;28;20469;-82
2021/04/25 09:25:28;;;;;;;3.97;3.30;;;11.20;37.40;;;;;;5043707;28;20511;-82
2021/04/25 09:28:18;;;;;;;4.90;2.97;;;11.00;37.70;;;;;;5035647;28;20490;-82
2021/04/25 09:31:22;;;;;;;5.30;3.03;;;11.30;37.30;;;;;;5044263;28;20461;-83
2021/04/25 09:33:59;;;;;;;4.73;3.37;;;11.20;37.40;;;;;;5034793;28;20582;-82
2021/04/25 09:36:38;;;;;;;6.73;3.27;;;10.90;37.10;;;;;;5038228;28;20443;-83
2021/04/25 09:39:26;;;;;;;6.70;3.90;;;11.00;37.50;;;;;;5043528;28;20478;-81
2021/04/25 09:42:07;;;;;;;5.37;2.90;;;11.20;37.80;;;;;;5032913;28;20494;-82
2021/04/25 09:44:47;;;;;;;6.13;3.30;;;11.30;37.70;;;;;;5040994;28;20482;-81
2021/04/25 09:47:50;;;;;;;3.50;3.07;;;11.20;36.70;;;;;;5040022;28;20502;-81
2021/04/25 09:50:31;;;;;;;6.80;3.70;;;11.70;37.70;;;;;;5043425;28;20482;-81
2021/04/25 09:53:19;;;;;;;3.60;3.13;;;11.30;36.20;;;;;;5040197;28;20470;-83
2021/04/25 09:56:01;;;;;;;4.30;3.60;;;11.40;35.80;;;;;;5039237;28;20442;-81
2021/04/25 09:59:03;;;;;;;3.83;3.13;;;11.10;36.50;;;;;;5037716;28;21215;-82
2021/04/25 10:01:52;;;;;;;3.57;3.00;;;11.50;36.70;;;;;;5030223;28;20906;-81
2021/04/25 10:04:38;;;;;;;5.70;3.57;;;11.80;36.90;;;;;;5038580;28;20585;-81
2021/04/25 10:07:15;;;;;;;8.10;3.97;;;12.10;37.00;;;;;;5049117;28;20486;-81
2021/04/25 10:09:50;;;;;;;3.97;3.57;;;12.00;37.00;;;;;;5026793;28;20477;-79
2021/04/25 10:12:31;;;;;;;5.10;3.90;;;12.40;37.70;;;;;;5035355;28;20582;-81
2021/04/25 10:15:08;;;;;;;5.70;3.10;;;12.00;36.60;;;;;;5032861;28;20807;-79
2021/04/25 10:17:48;;;;;;;7.70;3.73;;;12.20;36.90;;;;;;5046681;28;20450;-79
2021/04/25 10:20:26;;;;;;;4.20;3.80;;;12.50;36.30;;;;;;5043189;28;20513;-81
2021/04/25 10:23:02;;;;;;;4.83;4.13;;;12.30;36.10;;;;;;5044808;28;20474;-80
2021/04/25 10:25:41;;;;;;;8.93;4.77;;;12.40;36.30;;;;;;5049163;28;20455;-81
2021/04/25 10:28:18;;;;;;;3.87;3.47;;;12.40;36.60;;;;;;5045816;28;20592;-78
2021/04/25 10:30:54;;;;;;;5.53;4.03;;;12.30;36.20;;;;;;5043557;28;20465;-80
2021/04/25 10:33:59;;;;;;;5.93;4.27;;;12.40;36.30;;;;;;5041821;28;20456;-80
2021/04/25 10:37:15;;;;;;;5.50;3.63;;;12.80;36.40;;;;;;5037092;28;20806;-80
2021/04/25 10:40:13;;;;;;;4.27;3.87;;;12.70;36.60;;;;;;4994143;28;20461;-82
2021/04/25 10:43:06;;;;;;;5.77;4.17;;;12.30;35.80;;;;;;5031630;28;20467;-80
2021/04/25 10:46:07;;;;;;;5.90;4.60;;;12.40;36.00;;;;;;5036820;28;20455;-79
2021/04/25 10:48:50;;;;;;;7.17;4.27;;;12.20;35.10;;;;;;5037146;28;20489;-81
2021/04/25 10:51:24;;;;;;;4.47;4.00;;;12.40;35.20;;;;;;5042204;28;20527;-81
2021/04/25 10:54:11;;;;;;;4.20;3.80;;;12.70;35.60;;;;;;5040913;28;20448;-80
2021/04/25 10:57:08;;;;;;;5.33;3.90;;;12.60;34.70;;;;;;5046734;28;20455;-82
2021/04/25 11:02:54;;;;;;;5.10;4.50;;;12.80;35.10;;;;;;5049009;28;20430;-87
2021/04/25 11:05:46;;;;;;;5.37;3.80;;;12.90;35.00;;;;;;5049618;28;20506;-83
2021/04/25 11:08:44;;;;;;;4.37;3.80;;;13.20;35.30;;;;;;5051886;28;20463;-82
2021/04/25 11:11:35;;;;;;;5.70;4.40;;;13.20;35.10;;;;;;5043521;28;20454;-79
2021/04/25 11:14:22;;;;;;;4.37;3.97;;;13.00;34.20;;;;;;5042654;28;20481;-81
2021/04/25 11:16:58;;;;;;;4.00;3.70;;;13.20;34.40;;;;;;5039908;28;20530;-82
2021/04/25 11:19:34;;;;;;;4.70;3.80;;;13.10;34.30;;;;;;5038057;28;20492;-81
2021/04/25 11:22:10;;;;;;;3.50;3.20;;;13.00;33.90;;;;;;5036568;28;20458;-81
2021/04/25 11:25:24;;;;;;;5.30;3.70;;;12.70;32.60;;;;;;5040520;28;20461;-81
2021/04/25 11:28:11;;;;;;;4.57;3.70;;;13.00;32.60;;;;;;5038966;28;20535;-81
2021/04/25 11:30:48;;;;;;;4.17;3.53;;;13.00;32.20;;;;;;5035466;28;20499;-80
2021/04/25 11:33:39;;;;;;;4.73;3.73;;;13.40;32.10;;;;;;5046684;28;20463;-83
2021/04/25 11:36:42;;;;;;;4.20;3.80;;;12.90;32.50;;;;;;5033845;28;20451;-84
2021/04/25 11:39:32;;;;;;;5.37;4.10;;;13.10;33.30;;;;;;5033544;28;20455;-84
2021/04/25 11:42:17;;;;;;;5.30;3.73;;;13.10;33.60;;;;;;5042393;28;20816;-82
2021/04/25 11:45:03;;;;;;;5.10;4.43;;;13.10;33.40;;;;;;5041681;28;20443;-82
2021/04/25 11:48:05;;;;;;;4.80;3.33;;;12.90;32.90;;;;;;5044495;28;20505;-81
2021/04/25 11:50:48;;;;;;;8.90;4.07;;;13.30;32.60;;;;;;5041808;28;20455;-85
2021/04/25 11:53:42;;;;;;;8.50;3.63;;;13.40;32.40;;;;;;5039746;28;20491;-83
2021/04/25 11:56:29;;;;;;;5.47;4.20;;;13.50;32.70;;;;;;5034248;28;20447;-83
2021/04/25 11:59:22;;;;;;;5.73;4.93;;;13.40;32.80;;;;;;5041897;28;20455;-82
2021/04/25 12:02:16;;;;;;;3.93;3.63;;;13.70;33.40;;;;;;5036174;28;20460;-82
2021/04/25 12:05:07;;;;;;;5.87;3.87;;;13.60;32.60;;;;;;5042202;28;20445;-81
2021/04/25 12:07:45;;;;;;;3.73;3.43;;;13.20;32.30;;;;;;5034647;28;20486;-89
2021/04/25 12:10:35;;;;;;;5.00;3.73;;;13.60;33.20;;;;;;5041412;28;20456;-83
2021/04/25 12:13:31;;;;;;;4.67;3.90;;;13.50;33.50;;;;;;5041905;28;20470;-86
2021/04/25 12:16:32;;;;;;;4.70;4.10;;;13.70;33.70;;;;;;5045022;28;20447;-81
2021/04/25 12:19:08;;;;;;;8.27;4.40;;;13.40;32.20;;;;;;5040769;28;20517;-81
2021/04/25 12:21:44;;;;;;;4.33;3.90;;;13.60;32.80;;;;;;5046252;28;20454;-84
2021/04/25 12:24:19;;;;;;;7.57;4.30;;;13.90;33.20;;;;;;5034599;28;20498;-84
2021/04/25 12:26:57;;;;;;;6.43;3.97;;;13.70;33.20;;;;;;5038687;28;20458;-83
2021/04/25 12:29:52;;;;;;;5.23;4.17;;;13.80;33.60;;;;;;5037995;28;20447;-83
2021/04/25 12:32:45;;;;;;;5.20;4.70;;;13.70;33.60;;;;;;5046575;28;20450;-82
2021/04/25 12:35:28;;;;;;;5.17;4.30;;;14.00;34.10;;;;;;5050350;28;20451;-86
2021/04/25 12:38:17;;;;;;;9.50;4.87;;;13.90;33.90;;;;;;5053483;28;20481;-83
2021/04/25 12:41:09;;;;;;;4.30;3.90;;;13.80;33.50;;;;;;5050693;28;20455;-84
2021/04/25 12:44:01;;;;;;;4.57;4.17;;;14.30;34.00;;;;;;5037738;28;20505;-84
2021/04/25 12:47:00;;;;;;;4.93;4.43;;;14.00;33.30;;;;;;5032167;28;20628;-83
2021/04/25 12:49:39;;;;;;;4.90;3.90;;;14.60;33.80;;;;;;5044921;28;20478;-87
2021/04/25 12:52:20;;;;;;;4.90;3.60;;;14.60;32.70;;;;;;5052828;28;20530;-86
2021/04/25 12:55:06;;;;;;;4.60;3.30;;;14.30;32.60;;;;;;5030971;28;20486;-83
2021/04/25 12:57:41;;;;;;;4.00;3.57;;;14.40;32.50;;;;;;5037449;28;20452;-81
2021/04/25 13:00:37;;;;;;;4.80;3.70;;;14.60;31.80;;;;;;5040675;28;20477;-81
2021/04/25 13:03:31;;;;;;;5.33;4.20;;;14.30;32.30;;;;;;5046414;28;20451;-82
2021/04/25 13:06:06;;;;;;;4.80;3.70;;;14.10;32.60;;;;;;5033370;28;20463;-81
2021/04/25 13:08:50;;;;;;;4.23;3.50;;;14.50;33.00;;;;;;5036424;28;20472;-84
2021/04/25 13:11:44;;;;;;;4.33;3.80;;;14.30;32.70;;;;;;5030806;28;20464;-82
2021/04/25 13:14:21;;;;;;;5.90;4.03;;;14.30;32.60;;;;;;5036007;28;20458;-83
2021/04/25 13:17:09;;;;;;;3.60;3.30;;;14.10;32.20;;;;;;5037665;28;20450;-83
2021/04/25 13:22:38;;;;;;;7.83;4.10;;;14.30;33.10;;;;;;5043326;28;20501;-84
2021/04/25 13:25:19;;;;;;;3.83;3.53;;;14.50;33.80;;;;;;5049931;28;20454;-86
2021/04/25 13:28:01;;;;;;;4.60;3.20;;;14.40;32.30;;;;;;5027008;28;20538;-82
2021/04/25 13:30:50;;;;;;;6.33;4.00;;;14.40;31.70;;;;;;5031288;28;20501;-82
2021/04/25 13:33:34;;;;;;;3.47;3.17;;;14.50;31.80;;;;;;5046123;28;20450;-82
2021/04/25 13:36:11;;;;;;;3.80;3.40;;;14.60;31.50;;;;;;5043725;28;20447;-84
2021/04/25 13:38:47;;;;;;;4.07;3.67;;;14.80;31.30;;;;;;5031855;28;20581;-81
2021/04/25 13:41:22;;;;;;;5.60;4.20;;;14.70;31.50;;;;;;5034927;28;20878;-84
2021/04/25 13:44:00;;;;;;;3.77;3.37;;;14.70;32.70;;;;;;5040679;28;20465;-82
2021/04/25 13:46:36;;;;;;;4.40;3.37;;;14.80;32.90;;;;;;5036702;28;20447;-86
2021/04/25 13:49:11;;;;;;;4.97;3.47;;;15.00;31.60;;;;;;5049589;28;20471;-85
2021/04/25 13:51:47;;;;;;;6.10;3.23;;;14.60;31.30;;;;;;5032716;28;20447;-83
2021/04/25 13:54:23;;;;;;;3.70;3.27;;;14.70;31.50;;;;;;5033782;28;20443;-86
2021/04/25 13:57:07;;;;;;;4.40;3.33;;;14.90;31.70;;;;;;5037072;28;20455;-83
2021/04/25 13:59:57;;;;;;;3.50;3.00;;;14.90;32.40;;;;;;5036092;28;20466;-82
2021/04/25 14:02:33;;;;;;;5.90;3.40;;;15.00;32.70;;;;;;5036279;28;20455;-82